sensor_id;sensor_type;location;lat;lon;timestamp;temperature;humidity
78536;SHT31;67829;51.968;5.684;2023-04-25T00:01:28;9.4;67.3
78536;SHT31;67829;51.968;5.684;2023-04-25T00:03:57;9.4;67.3
78536;SHT31;67829;51.968;5.684;2023-04-25T00:06:25;9.4;67.4
78536;SHT31;67829;51.968;5.684;2023-04-25T00:08:54;9.4;67.4
78536;SHT31;67829;51.968;5.684;2023-04-25T00:11:23;9.4;67.3
78536;SHT31;67829;51.968;5.684;2023-04-25T00:13:51;9.3;67.4
78536;SHT31;67829;51.968;5.684;2023-04-25T00:16:20;9.3;67.4
78536;SHT31;67829;51.968;5.684;2023-04-25T00:18:52;9.3;67.4
78536;SHT31;67829;51.968;5.684;2023-04-25T00:21:20;9.3;67.2
78536;SHT31;67829;51.968;5.684;2023-04-25T00:23:51;9.3;67.2
78536;SHT31;67829;51.968;5.684;2023-04-25T00:26:20;9.3;67.2
78536;SHT31;67829;51.968;5.684;2023-04-25T00:28:49;9.3;67.2
78536;SHT31;67829;51.968;5.684;2023-04-25T00:31:18;9.3;66.9
78536;SHT31;67829;51.968;5.684;2023-04-25T00:33:47;9.3;66.8
78536;SHT31;67829;51.968;5.684;2023-04-25T00:36:16;9.3;66.8
78536;SHT31;67829;51.968;5.684;2023-04-25T00:38:45;9.3;66.7
78536;SHT31;67829;51.968;5.684;2023-04-25T00:41:15;9.2;66.8
78536;SHT31;67829;51.968;5.684;2023-04-25T00:43:46;9.2;66.8
78536;SHT31;67829;51.968;5.684;2023-04-25T00:46:16;9.2;66.8
78536;SHT31;67829;51.968;5.684;2023-04-25T00:48:44;9.1;66.9
78536;SHT31;67829;51.968;5.684;2023-04-25T00:51:16;9.1;66.9
78536;SHT31;67829;51.968;5.684;2023-04-25T00:53:49;9.1;66.9
78536;SHT31;67829;51.968;5.684;2023-04-25T00:56:18;9.1;66.8
78536;SHT31;67829;51.968;5.684;2023-04-25T00:58:47;9.0;66.8
78536;SHT31;67829;51.968;5.684;2023-04-25T01:01:16;9.0;66.7
78536;SHT31;67829;51.968;5.684;2023-04-25T01:03:46;9.0;66.6
78536;SHT31;67829;51.968;5.684;2023-04-25T01:06:16;9.0;66.6
78536;SHT31;67829;51.968;5.684;2023-04-25T01:08:45;9.0;66.7
78536;SHT31;67829;51.968;5.684;2023-04-25T01:11:16;9.0;66.4
78536;SHT31;67829;51.968;5.684;2023-04-25T01:13:44;9.0;66.2
78536;SHT31;67829;51.968;5.684;2023-04-25T01:16:13;9.0;66.0
78536;SHT31;67829;51.968;5.684;2023-04-25T01:18:42;9.0;65.8
78536;SHT31;67829;51.968;5.684;2023-04-25T01:21:12;9.0;65.8
78536;SHT31;67829;51.968;5.684;2023-04-25T01:23:41;9.0;65.4
78536;SHT31;67829;51.968;5.684;2023-04-25T01:26:11;9.0;65.4
78536;SHT31;67829;51.968;5.684;2023-04-25T01:28:40;9.0;65.2
78536;SHT31;67829;51.968;5.684;2023-04-25T01:31:09;9.0;65.1
78536;SHT31;67829;51.968;5.684;2023-04-25T01:33:40;9.0;65.2
78536;SHT31;67829;51.968;5.684;2023-04-25T01:36:11;9.1;64.9
78536;SHT31;67829;51.968;5.684;2023-04-25T01:38:41;9.1;64.8
78536;SHT31;67829;51.968;5.684;2023-04-25T01:41:12;9.1;64.9
78536;SHT31;67829;51.968;5.684;2023-04-25T01:43:41;9.1;64.7
78536;SHT31;67829;51.968;5.684;2023-04-25T01:46:10;9.1;64.5
78536;SHT31;67829;51.968;5.684;2023-04-25T01:48:39;9.1;64.4
78536;SHT31;67829;51.968;5.684;2023-04-25T01:51:08;9.2;64.4
78536;SHT31;67829;51.968;5.684;2023-04-25T01:53:38;9.2;64.3
78536;SHT31;67829;51.968;5.684;2023-04-25T01:56:10;9.2;64.2
78536;SHT31;67829;51.968;5.684;2023-04-25T01:58:38;9.2;63.8
78536;SHT31;67829;51.968;5.684;2023-04-25T02:01:07;9.2;63.4
78536;SHT31;67829;51.968;5.684;2023-04-25T02:03:36;9.2;63.5
78536;SHT31;67829;51.968;5.684;2023-04-25T02:06:05;9.2;63.4
78536;SHT31;67829;51.968;5.684;2023-04-25T02:08:33;9.2;63.2
78536;SHT31;67829;51.968;5.684;2023-04-25T02:11:03;9.2;63.0
78536;SHT31;67829;51.968;5.684;2023-04-25T02:13:32;9.1;62.9
78536;SHT31;67829;51.968;5.684;2023-04-25T02:16:00;9.1;63.2
78536;SHT31;67829;51.968;5.684;2023-04-25T02:18:29;9.1;63.4
78536;SHT31;67829;51.968;5.684;2023-04-25T02:20:58;9.1;63.2
78536;SHT31;67829;51.968;5.684;2023-04-25T02:23:28;9.0;63.1
78536;SHT31;67829;51.968;5.684;2023-04-25T02:25:57;9.0;63.2
78536;SHT31;67829;51.968;5.684;2023-04-25T02:28:26;9.0;63.3
78536;SHT31;67829;51.968;5.684;2023-04-25T02:30:54;8.9;63.1
78536;SHT31;67829;51.968;5.684;2023-04-25T02:33:23;8.9;63.2
78536;SHT31;67829;51.968;5.684;2023-04-25T02:35:51;8.9;62.9
78536;SHT31;67829;51.968;5.684;2023-04-25T02:38:20;8.9;63.0
78536;SHT31;67829;51.968;5.684;2023-04-25T02:40:48;8.8;63.1
78536;SHT31;67829;51.968;5.684;2023-04-25T02:43:17;8.8;62.9
78536;SHT31;67829;51.968;5.684;2023-04-25T02:45:47;8.8;63.1
78536;SHT31;67829;51.968;5.684;2023-04-25T02:48:15;8.7;63.1
78536;SHT31;67829;51.968;5.684;2023-04-25T02:50:44;8.7;63.3
78536;SHT31;67829;51.968;5.684;2023-04-25T02:53:13;8.7;63.5
78536;SHT31;67829;51.968;5.684;2023-04-25T02:55:41;8.6;63.3
78536;SHT31;67829;51.968;5.684;2023-04-25T02:58:12;8.6;63.1
78536;SHT31;67829;51.968;5.684;2023-04-25T03:00:41;8.6;63.2
78536;SHT31;67829;51.968;5.684;2023-04-25T03:03:10;8.5;63.2
78536;SHT31;67829;51.968;5.684;2023-04-25T03:05:39;8.5;63.6
78536;SHT31;67829;51.968;5.684;2023-04-25T03:08:07;8.5;63.5
78536;SHT31;67829;51.968;5.684;2023-04-25T03:10:36;8.4;63.7
78536;SHT31;67829;51.968;5.684;2023-04-25T03:13:05;8.4;63.7
78536;SHT31;67829;51.968;5.684;2023-04-25T03:15:33;8.4;63.7
78536;SHT31;67829;51.968;5.684;2023-04-25T03:18:02;8.3;64.0
78536;SHT31;67829;51.968;5.684;2023-04-25T03:20:30;8.3;64.3
78536;SHT31;67829;51.968;5.684;2023-04-25T03:22:59;8.3;64.6
78536;SHT31;67829;51.968;5.684;2023-04-25T03:25:27;8.2;64.9
78536;SHT31;67829;51.968;5.684;2023-04-25T03:27:56;8.2;65.2
78536;SHT31;67829;51.968;5.684;2023-04-25T03:30:24;8.2;65.2
78536;SHT31;67829;51.968;5.684;2023-04-25T03:32:53;8.2;65.7
78536;SHT31;67829;51.968;5.684;2023-04-25T03:35:22;8.2;65.8
78536;SHT31;67829;51.968;5.684;2023-04-25T03:37:50;8.2;65.8
78536;SHT31;67829;51.968;5.684;2023-04-25T03:40:19;8.2;66.2
78536;SHT31;67829;51.968;5.684;2023-04-25T03:42:48;8.2;65.7
78536;SHT31;67829;51.968;5.684;2023-04-25T03:45:16;8.2;65.7
78536;SHT31;67829;51.968;5.684;2023-04-25T03:47:45;8.2;65.8
78536;SHT31;67829;51.968;5.684;2023-04-25T03:50:13;8.2;65.7
78536;SHT31;67829;51.968;5.684;2023-04-25T03:52:43;8.2;65.3
78536;SHT31;67829;51.968;5.684;2023-04-25T03:55:12;8.2;65.3
78536;SHT31;67829;51.968;5.684;2023-04-25T03:57:42;8.2;65.4
78536;SHT31;67829;51.968;5.684;2023-04-25T04:00:12;8.1;65.5
78536;SHT31;67829;51.968;5.684;2023-04-25T04:02:41;8.1;65.6
78536;SHT31;67829;51.968;5.684;2023-04-25T04:05:10;8.1;65.8
78536;SHT31;67829;51.968;5.684;2023-04-25T04:07:39;8.1;65.7
78536;SHT31;67829;51.968;5.684;2023-04-25T04:10:09;8.0;66.0
78536;SHT31;67829;51.968;5.684;2023-04-25T04:12:38;8.0;66.0
78536;SHT31;67829;51.968;5.684;2023-04-25T04:15:07;8.0;66.3
78536;SHT31;67829;51.968;5.684;2023-04-25T04:17:38;8.0;66.1
78536;SHT31;67829;51.968;5.684;2023-04-25T04:20:08;8.0;66.4
78536;SHT31;67829;51.968;5.684;2023-04-25T04:22:37;8.0;66.4
78536;SHT31;67829;51.968;5.684;2023-04-25T04:25:07;8.0;66.2
78536;SHT31;67829;51.968;5.684;2023-04-25T04:27:35;8.0;66.0
78536;SHT31;67829;51.968;5.684;2023-04-25T04:30:05;8.1;65.6
78536;SHT31;67829;51.968;5.684;2023-04-25T04:32:34;8.1;65.2
78536;SHT31;67829;51.968;5.684;2023-04-25T04:35:04;8.1;65.1
78536;SHT31;67829;51.968;5.684;2023-04-25T04:37:33;8.1;64.9
78536;SHT31;67829;51.968;5.684;2023-04-25T04:40:03;8.1;65.1
78536;SHT31;67829;51.968;5.684;2023-04-25T04:42:33;8.1;64.7
78536;SHT31;67829;51.968;5.684;2023-04-25T04:45:02;8.1;64.7
78536;SHT31;67829;51.968;5.684;2023-04-25T04:47:31;8.1;64.9
78536;SHT31;67829;51.968;5.684;2023-04-25T04:50:00;8.2;64.7
78536;SHT31;67829;51.968;5.684;2023-04-25T04:52:29;8.2;64.6
78536;SHT31;67829;51.968;5.684;2023-04-25T04:54:57;8.2;64.2
78536;SHT31;67829;51.968;5.684;2023-04-25T04:57:26;8.2;64.5
78536;SHT31;67829;51.968;5.684;2023-04-25T04:59:55;8.2;64.6
78536;SHT31;67829;51.968;5.684;2023-04-25T05:02:24;8.2;64.4
78536;SHT31;67829;51.968;5.684;2023-04-25T05:04:52;8.2;64.5
78536;SHT31;67829;51.968;5.684;2023-04-25T05:07:21;8.2;64.1
78536;SHT31;67829;51.968;5.684;2023-04-25T05:09:50;8.3;64.0
78536;SHT31;67829;51.968;5.684;2023-04-25T05:12:18;8.3;64.2
78536;SHT31;67829;51.968;5.684;2023-04-25T05:14:46;8.3;64.1
78536;SHT31;67829;51.968;5.684;2023-04-25T05:17:15;8.3;64.1
78536;SHT31;67829;51.968;5.684;2023-04-25T05:19:44;8.3;64.3
78536;SHT31;67829;51.968;5.684;2023-04-25T05:22:12;8.4;64.3
78536;SHT31;67829;51.968;5.684;2023-04-25T05:24:41;8.4;64.5
78536;SHT31;67829;51.968;5.684;2023-04-25T05:27:09;8.4;64.3
78536;SHT31;67829;51.968;5.684;2023-04-25T05:29:38;8.5;63.7
78536;SHT31;67829;51.968;5.684;2023-04-25T05:32:07;8.5;63.9
78536;SHT31;67829;51.968;5.684;2023-04-25T05:34:35;8.5;63.7
78536;SHT31;67829;51.968;5.684;2023-04-25T05:37:04;8.5;63.7
78536;SHT31;67829;51.968;5.684;2023-04-25T05:39:33;8.6;63.6
78536;SHT31;67829;51.968;5.684;2023-04-25T05:42:01;8.6;63.0
78536;SHT31;67829;51.968;5.684;2023-04-25T05:44:30;8.6;63.4
78536;SHT31;67829;51.968;5.684;2023-04-25T05:46:59;8.6;62.7
78536;SHT31;67829;51.968;5.684;2023-04-25T05:49:27;8.7;62.3
78536;SHT31;67829;51.968;5.684;2023-04-25T05:51:56;8.7;62.9
78536;SHT31;67829;51.968;5.684;2023-04-25T05:54:24;8.7;62.4
78536;SHT31;67829;51.968;5.684;2023-04-25T05:56:53;8.7;62.3
78536;SHT31;67829;51.968;5.684;2023-04-25T05:59:22;8.7;61.8
78536;SHT31;67829;51.968;5.684;2023-04-25T06:01:50;8.7;62.2
78536;SHT31;67829;51.968;5.684;2023-04-25T06:04:19;8.7;61.6
78536;SHT31;67829;51.968;5.684;2023-04-25T06:06:47;8.8;62.0
78536;SHT31;67829;51.968;5.684;2023-04-25T06:09:16;8.8;61.7
78536;SHT31;67829;51.968;5.684;2023-04-25T06:11:44;8.8;61.6
78536;SHT31;67829;51.968;5.684;2023-04-25T06:14:13;8.9;61.7
78536;SHT31;67829;51.968;5.684;2023-04-25T06:16:42;8.9;62.2
78536;SHT31;67829;51.968;5.684;2023-04-25T06:19:10;8.9;62.9
78536;SHT31;67829;51.968;5.684;2023-04-25T06:21:39;9.0;61.5
78536;SHT31;67829;51.968;5.684;2023-04-25T06:24:07;9.0;61.3
78536;SHT31;67829;51.968;5.684;2023-04-25T06:26:36;9.0;61.6
78536;SHT31;67829;51.968;5.684;2023-04-25T06:29:04;9.1;61.7
78536;SHT31;67829;51.968;5.684;2023-04-25T06:31:33;9.1;61.7
78536;SHT31;67829;51.968;5.684;2023-04-25T06:34:03;9.2;62.4
78536;SHT31;67829;51.968;5.684;2023-04-25T06:36:32;9.2;61.8
78536;SHT31;67829;51.968;5.684;2023-04-25T06:39:01;9.3;62.1
78536;SHT31;67829;51.968;5.684;2023-04-25T06:41:29;9.3;61.7
78536;SHT31;67829;51.968;5.684;2023-04-25T06:43:58;9.3;61.3
78536;SHT31;67829;51.968;5.684;2023-04-25T06:46:26;9.4;60.4
78536;SHT31;67829;51.968;5.684;2023-04-25T06:48:55;9.4;61.2
78536;SHT31;67829;51.968;5.684;2023-04-25T06:51:24;9.4;60.0
78536;SHT31;67829;51.968;5.684;2023-04-25T06:53:55;9.5;59.9
78536;SHT31;67829;51.968;5.684;2023-04-25T06:56:23;9.5;59.9
78536;SHT31;67829;51.968;5.684;2023-04-25T06:58:52;9.5;60.9
78536;SHT31;67829;51.968;5.684;2023-04-25T07:01:21;9.6;59.9
78536;SHT31;67829;51.968;5.684;2023-04-25T07:03:50;9.6;60.1
78536;SHT31;67829;51.968;5.684;2023-04-25T07:06:18;9.7;59.2
78536;SHT31;67829;51.968;5.684;2023-04-25T07:08:47;9.7;59.2
78536;SHT31;67829;51.968;5.684;2023-04-25T07:11:16;9.8;59.0
78536;SHT31;67829;51.968;5.684;2023-04-25T07:13:44;9.8;58.9
78536;SHT31;67829;51.968;5.684;2023-04-25T07:16:13;9.9;57.5
78536;SHT31;67829;51.968;5.684;2023-04-25T07:18:41;9.9;57.2
78536;SHT31;67829;51.968;5.684;2023-04-25T07:21:10;9.9;56.8
78536;SHT31;67829;51.968;5.684;2023-04-25T07:23:38;10.0;57.5
78536;SHT31;67829;51.968;5.684;2023-04-25T07:26:07;10.0;57.9
78536;SHT31;67829;51.968;5.684;2023-04-25T07:28:36;10.0;58.1
78536;SHT31;67829;51.968;5.684;2023-04-25T07:31:05;10.1;57.0
78536;SHT31;67829;51.968;5.684;2023-04-25T07:33:33;10.1;56.9
78536;SHT31;67829;51.968;5.684;2023-04-25T07:36:04;10.2;56.8
78536;SHT31;67829;51.968;5.684;2023-04-25T07:38:33;10.2;55.8
78536;SHT31;67829;51.968;5.684;2023-04-25T07:41:03;10.3;55.2
78536;SHT31;67829;51.968;5.684;2023-04-25T07:43:32;10.3;56.0
78536;SHT31;67829;51.968;5.684;2023-04-25T07:46:01;10.3;56.2
78536;SHT31;67829;51.968;5.684;2023-04-25T07:48:29;10.4;57.1
78536;SHT31;67829;51.968;5.684;2023-04-25T07:50:58;10.4;56.5
78536;SHT31;67829;51.968;5.684;2023-04-25T07:53:27;10.4;55.9
78536;SHT31;67829;51.968;5.684;2023-04-25T07:55:55;10.5;57.7
78536;SHT31;67829;51.968;5.684;2023-04-25T07:58:24;10.5;58.4
78536;SHT31;67829;51.968;5.684;2023-04-25T08:00:52;10.5;56.3
78536;SHT31;67829;51.968;5.684;2023-04-25T08:03:21;10.6;55.6
78536;SHT31;67829;51.968;5.684;2023-04-25T08:05:50;10.6;56.1
78536;SHT31;67829;51.968;5.684;2023-04-25T08:08:18;10.7;55.7
78536;SHT31;67829;51.968;5.684;2023-04-25T08:10:47;10.7;55.4
78536;SHT31;67829;51.968;5.684;2023-04-25T08:13:16;10.8;57.5
78536;SHT31;67829;51.968;5.684;2023-04-25T08:15:45;10.9;55.4
78536;SHT31;67829;51.968;5.684;2023-04-25T08:18:13;11.0;53.5
78536;SHT31;67829;51.968;5.684;2023-04-25T08:20:42;11.1;53.7
78536;SHT31;67829;51.968;5.684;2023-04-25T08:23:11;11.2;52.3
78536;SHT31;67829;51.968;5.684;2023-04-25T08:25:40;11.2;51.8
78536;SHT31;67829;51.968;5.684;2023-04-25T08:28:09;11.3;51.0
78536;SHT31;67829;51.968;5.684;2023-04-25T08:30:37;11.3;51.3
78536;SHT31;67829;51.968;5.684;2023-04-25T08:33:06;11.3;50.7
78536;SHT31;67829;51.968;5.684;2023-04-25T08:35:35;11.3;50.5
78536;SHT31;67829;51.968;5.684;2023-04-25T08:38:03;11.3;50.3
78536;SHT31;67829;51.968;5.684;2023-04-25T08:40:38;11.3;50.5
78536;SHT31;67829;51.968;5.684;2023-04-25T08:43:07;11.3;52.4
78536;SHT31;67829;51.968;5.684;2023-04-25T08:45:39;11.4;52.7
78536;SHT31;67829;51.968;5.684;2023-04-25T08:48:11;11.4;51.2
78536;SHT31;67829;51.968;5.684;2023-04-25T08:50:45;11.4;49.0
78536;SHT31;67829;51.968;5.684;2023-04-25T08:53:22;11.5;48.4
78536;SHT31;67829;51.968;5.684;2023-04-25T08:55:55;11.5;48.3
78536;SHT31;67829;51.968;5.684;2023-04-25T08:58:24;11.5;47.7
78536;SHT31;67829;51.968;5.684;2023-04-25T09:00:53;11.6;46.8
78536;SHT31;67829;51.968;5.684;2023-04-25T09:03:22;11.6;46.3
78536;SHT31;67829;51.968;5.684;2023-04-25T09:05:51;11.6;46.0
78536;SHT31;67829;51.968;5.684;2023-04-25T09:08:20;11.7;45.8
78536;SHT31;67829;51.968;5.684;2023-04-25T09:10:48;11.6;46.3
78536;SHT31;67829;51.968;5.684;2023-04-25T09:13:26;11.6;49.5
78536;SHT31;67829;51.968;5.684;2023-04-25T09:15:56;11.5;50.2
78536;SHT31;67829;51.968;5.684;2023-04-25T09:18:27;11.5;49.8
78536;SHT31;67829;51.968;5.684;2023-04-25T09:20:58;11.4;49.0
78536;SHT31;67829;51.968;5.684;2023-04-25T09:23:41;11.4;49.9
78536;SHT31;67829;51.968;5.684;2023-04-25T09:26:10;11.3;47.1
78536;SHT31;67829;51.968;5.684;2023-04-25T09:28:43;11.3;47.6
78536;SHT31;67829;51.968;5.684;2023-04-25T09:31:23;11.3;48.8
78536;SHT31;67829;51.968;5.684;2023-04-25T09:34:00;11.2;49.9
78536;SHT31;67829;51.968;5.684;2023-04-25T09:36:29;11.2;50.6
78536;SHT31;67829;51.968;5.684;2023-04-25T09:38:59;11.2;49.6
78536;SHT31;67829;51.968;5.684;2023-04-25T09:41:31;11.2;50.5
78536;SHT31;67829;51.968;5.684;2023-04-25T09:44:01;11.2;46.5
78536;SHT31;67829;51.968;5.684;2023-04-25T09:46:35;11.2;46.8
78536;SHT31;67829;51.968;5.684;2023-04-25T09:49:08;11.2;45.6
78536;SHT31;67829;51.968;5.684;2023-04-25T09:51:36;11.3;46.3
78536;SHT31;67829;51.968;5.684;2023-04-25T09:54:05;11.3;46.0
78536;SHT31;67829;51.968;5.684;2023-04-25T09:56:36;11.4;43.3
78536;SHT31;67829;51.968;5.684;2023-04-25T09:59:05;11.4;44.4
78536;SHT31;67829;51.968;5.684;2023-04-25T10:01:39;11.5;47.6
78536;SHT31;67829;51.968;5.684;2023-04-25T10:04:10;11.7;45.1
78536;SHT31;67829;51.968;5.684;2023-04-25T10:06:44;11.8;45.5
78536;SHT31;67829;51.968;5.684;2023-04-25T10:09:14;11.9;44.1
78536;SHT31;67829;51.968;5.684;2023-04-25T10:11:44;12.0;43.4
78536;SHT31;67829;51.968;5.684;2023-04-25T10:14:16;12.1;43.7
78536;SHT31;67829;51.968;5.684;2023-04-25T10:16:45;12.1;43.7
78536;SHT31;67829;51.968;5.684;2023-04-25T10:19:13;12.1;44.1
78536;SHT31;67829;51.968;5.684;2023-04-25T10:21:48;12.2;43.8
78536;SHT31;67829;51.968;5.684;2023-04-25T10:24:19;12.2;42.8
78536;SHT31;67829;51.968;5.684;2023-04-25T10:26:49;12.2;44.5
78536;SHT31;67829;51.968;5.684;2023-04-25T10:29:24;12.2;45.2
78536;SHT31;67829;51.968;5.684;2023-04-25T10:31:53;12.2;44.9
78536;SHT31;67829;51.968;5.684;2023-04-25T10:34:41;12.2;44.6
78536;SHT31;67829;51.968;5.684;2023-04-25T10:37:13;12.2;43.8
78536;SHT31;67829;51.968;5.684;2023-04-25T10:39:42;12.2;44.1
78536;SHT31;67829;51.968;5.684;2023-04-25T10:42:12;12.2;43.5
78536;SHT31;67829;51.968;5.684;2023-04-25T10:44:47;12.2;43.6
78536;SHT31;67829;51.968;5.684;2023-04-25T10:47:23;12.2;44.0
78536;SHT31;67829;51.968;5.684;2023-04-25T10:50:06;12.2;44.3
78536;SHT31;67829;51.968;5.684;2023-04-25T10:52:38;12.2;43.7
78536;SHT31;67829;51.968;5.684;2023-04-25T10:55:08;12.3;44.0
78536;SHT31;67829;51.968;5.684;2023-04-25T10:57:42;12.4;42.9
78536;SHT31;67829;51.968;5.684;2023-04-25T11:00:15;12.4;43.6
78536;SHT31;67829;51.968;5.684;2023-04-25T11:02:46;12.4;42.2
78536;SHT31;67829;51.968;5.684;2023-04-25T11:05:31;12.4;41.2
78536;SHT31;67829;51.968;5.684;2023-04-25T11:07:58;12.5;41.4
78536;SHT31;67829;51.968;5.684;2023-04-25T11:10:28;12.5;41.0
78536;SHT31;67829;51.968;5.684;2023-04-25T11:12:58;12.5;40.5
78536;SHT31;67829;51.968;5.684;2023-04-25T11:15:27;12.5;42.0
78536;SHT31;67829;51.968;5.684;2023-04-25T11:17:56;12.6;41.7
78536;SHT31;67829;51.968;5.684;2023-04-25T11:20:25;12.6;43.1
78536;SHT31;67829;51.968;5.684;2023-04-25T11:22:57;12.6;42.9
78536;SHT31;67829;51.968;5.684;2023-04-25T11:25:26;12.7;40.7
78536;SHT31;67829;51.968;5.684;2023-04-25T11:27:57;12.8;39.7
78536;SHT31;67829;51.968;5.684;2023-04-25T11:30:29;12.8;39.0
78536;SHT31;67829;51.968;5.684;2023-04-25T11:32:58;12.8;38.9
78536;SHT31;67829;51.968;5.684;2023-04-25T11:35:29;12.8;38.0
78536;SHT31;67829;51.968;5.684;2023-04-25T11:37:59;12.9;39.2
78536;SHT31;67829;51.968;5.684;2023-04-25T11:40:32;12.9;40.7
78536;SHT31;67829;51.968;5.684;2023-04-25T11:43:01;12.9;39.4
78536;SHT31;67829;51.968;5.684;2023-04-25T11:45:31;12.9;40.1
78536;SHT31;67829;51.968;5.684;2023-04-25T11:48:01;13.0;39.5
78536;SHT31;67829;51.968;5.684;2023-04-25T11:50:30;13.0;39.4
78536;SHT31;67829;51.968;5.684;2023-04-25T11:52:59;13.1;39.5
78536;SHT31;67829;51.968;5.684;2023-04-25T11:55:30;13.1;40.7
78536;SHT31;67829;51.968;5.684;2023-04-25T11:58:00;13.1;42.7
78536;SHT31;67829;51.968;5.684;2023-04-25T12:00:32;13.1;43.4
78536;SHT31;67829;51.968;5.684;2023-04-25T12:03:01;13.0;43.9
78536;SHT31;67829;51.968;5.684;2023-04-25T12:05:30;12.9;45.1
78536;SHT31;67829;51.968;5.684;2023-04-25T12:08:13;12.7;45.6
78536;SHT31;67829;51.968;5.684;2023-04-25T12:10:45;12.7;44.6
78536;SHT31;67829;51.968;5.684;2023-04-25T12:13:24;12.6;44.3
78536;SHT31;67829;51.968;5.684;2023-04-25T12:15:55;12.5;44.8
78536;SHT31;67829;51.968;5.684;2023-04-25T12:18:24;12.5;45.2
78536;SHT31;67829;51.968;5.684;2023-04-25T12:20:54;12.4;45.0
78536;SHT31;67829;51.968;5.684;2023-04-25T12:23:27;12.4;44.8
78536;SHT31;67829;51.968;5.684;2023-04-25T12:25:56;12.4;44.5
78536;SHT31;67829;51.968;5.684;2023-04-25T12:28:25;12.4;43.5
78536;SHT31;67829;51.968;5.684;2023-04-25T12:30:58;12.4;45.0
78536;SHT31;67829;51.968;5.684;2023-04-25T12:33:30;12.4;44.3
78536;SHT31;67829;51.968;5.684;2023-04-25T12:36:00;12.5;44.1
78536;SHT31;67829;51.968;5.684;2023-04-25T12:38:31;12.6;43.2
78536;SHT31;67829;51.968;5.684;2023-04-25T12:41:03;12.7;41.2
78536;SHT31;67829;51.968;5.684;2023-04-25T12:43:32;12.7;41.6
78536;SHT31;67829;51.968;5.684;2023-04-25T12:46:02;12.8;41.4
78536;SHT31;67829;51.968;5.684;2023-04-25T12:48:30;12.8;41.5
78536;SHT31;67829;51.968;5.684;2023-04-25T12:50:59;12.8;40.8
78536;SHT31;67829;51.968;5.684;2023-04-25T12:53:28;12.9;41.0
78536;SHT31;67829;51.968;5.684;2023-04-25T12:55:57;12.9;42.2
78536;SHT31;67829;51.968;5.684;2023-04-25T12:58:27;12.9;42.9
78536;SHT31;67829;51.968;5.684;2023-04-25T13:00:56;12.9;42.9
78536;SHT31;67829;51.968;5.684;2023-04-25T13:03:24;12.9;43.2
78536;SHT31;67829;51.968;5.684;2023-04-25T13:05:55;12.9;43.2
78536;SHT31;67829;51.968;5.684;2023-04-25T13:08:23;12.9;42.0
78536;SHT31;67829;51.968;5.684;2023-04-25T13:10:52;12.9;41.0
78536;SHT31;67829;51.968;5.684;2023-04-25T13:13:21;12.9;41.5
78536;SHT31;67829;51.968;5.684;2023-04-25T13:15:50;12.9;40.9
78536;SHT31;67829;51.968;5.684;2023-04-25T13:18:19;12.9;42.4
78536;SHT31;67829;51.968;5.684;2023-04-25T13:20:49;12.9;40.6
78536;SHT31;67829;51.968;5.684;2023-04-25T13:23:18;12.9;41.7
78536;SHT31;67829;51.968;5.684;2023-04-25T13:25:47;12.9;41.2
78536;SHT31;67829;51.968;5.684;2023-04-25T13:28:16;13.0;39.2
78536;SHT31;67829;51.968;5.684;2023-04-25T13:30:45;13.0;39.9
78536;SHT31;67829;51.968;5.684;2023-04-25T13:33:14;13.0;39.2
78536;SHT31;67829;51.968;5.684;2023-04-25T13:35:43;13.1;39.6
78536;SHT31;67829;51.968;5.684;2023-04-25T13:38:13;13.1;40.7
78536;SHT31;67829;51.968;5.684;2023-04-25T13:40:42;13.1;42.0
78536;SHT31;67829;51.968;5.684;2023-04-25T13:43:10;13.2;42.1
78536;SHT31;67829;51.968;5.684;2023-04-25T13:45:39;13.3;39.1
78536;SHT31;67829;51.968;5.684;2023-04-25T13:48:08;13.4;39.8
78536;SHT31;67829;51.968;5.684;2023-04-25T13:50:38;13.4;40.5
78536;SHT31;67829;51.968;5.684;2023-04-25T13:53:07;13.5;38.5
78536;SHT31;67829;51.968;5.684;2023-04-25T13:55:36;13.5;40.1
78536;SHT31;67829;51.968;5.684;2023-04-25T13:58:05;13.6;39.2
78536;SHT31;67829;51.968;5.684;2023-04-25T14:00:38;13.6;38.4
78536;SHT31;67829;51.968;5.684;2023-04-25T14:03:09;13.7;39.7
78536;SHT31;67829;51.968;5.684;2023-04-25T14:05:38;13.6;40.1
78536;SHT31;67829;51.968;5.684;2023-04-25T14:08:09;13.6;40.5
78536;SHT31;67829;51.968;5.684;2023-04-25T14:10:38;13.6;40.5
78536;SHT31;67829;51.968;5.684;2023-04-25T14:13:06;13.5;40.4
78536;SHT31;67829;51.968;5.684;2023-04-25T14:15:35;13.4;40.4
78536;SHT31;67829;51.968;5.684;2023-04-25T14:18:03;13.3;40.7
78536;SHT31;67829;51.968;5.684;2023-04-25T14:20:32;13.3;41.0
78536;SHT31;67829;51.968;5.684;2023-04-25T14:23:01;13.2;41.0
78536;SHT31;67829;51.968;5.684;2023-04-25T14:25:29;13.1;41.3
78536;SHT31;67829;51.968;5.684;2023-04-25T14:27:58;13.1;39.9
78536;SHT31;67829;51.968;5.684;2023-04-25T14:30:27;13.1;39.7
78536;SHT31;67829;51.968;5.684;2023-04-25T14:32:57;13.1;39.8
78536;SHT31;67829;51.968;5.684;2023-04-25T14:35:28;13.1;40.0
78536;SHT31;67829;51.968;5.684;2023-04-25T14:37:57;13.0;39.9
78536;SHT31;67829;51.968;5.684;2023-04-25T14:40:26;13.0;40.6
78536;SHT31;67829;51.968;5.684;2023-04-25T14:42:55;13.0;40.5
78536;SHT31;67829;51.968;5.684;2023-04-25T14:45:25;13.0;40.0
78536;SHT31;67829;51.968;5.684;2023-04-25T14:47:54;13.0;40.4
78536;SHT31;67829;51.968;5.684;2023-04-25T14:50:23;13.0;40.5
78536;SHT31;67829;51.968;5.684;2023-04-25T14:52:51;13.0;40.7
78536;SHT31;67829;51.968;5.684;2023-04-25T14:55:20;13.0;41.1
78536;SHT31;67829;51.968;5.684;2023-04-25T14:57:48;13.0;39.9
78536;SHT31;67829;51.968;5.684;2023-04-25T15:00:17;13.0;38.7
78536;SHT31;67829;51.968;5.684;2023-04-25T15:02:49;13.1;38.9
78536;SHT31;67829;51.968;5.684;2023-04-25T15:05:17;13.1;38.1
78536;SHT31;67829;51.968;5.684;2023-04-25T15:07:46;13.1;38.3
78536;SHT31;67829;51.968;5.684;2023-04-25T15:10:17;13.1;38.4
78536;SHT31;67829;51.968;5.684;2023-04-25T15:12:46;13.1;38.9
78536;SHT31;67829;51.968;5.684;2023-04-25T15:15:15;13.1;40.0
78536;SHT31;67829;51.968;5.684;2023-04-25T15:17:44;13.2;39.0
78536;SHT31;67829;51.968;5.684;2023-04-25T15:20:13;13.3;38.1
78536;SHT31;67829;51.968;5.684;2023-04-25T15:22:43;13.3;40.3
78536;SHT31;67829;51.968;5.684;2023-04-25T15:25:15;13.3;40.1
78536;SHT31;67829;51.968;5.684;2023-04-25T15:27:45;13.3;40.3
78536;SHT31;67829;51.968;5.684;2023-04-25T15:30:16;13.3;40.7
78536;SHT31;67829;51.968;5.684;2023-04-25T15:32:46;13.3;41.3
78536;SHT31;67829;51.968;5.684;2023-04-25T15:35:15;13.3;41.0
78536;SHT31;67829;51.968;5.684;2023-04-25T15:37:43;13.2;40.8
78536;SHT31;67829;51.968;5.684;2023-04-25T15:40:14;13.2;40.2
78536;SHT31;67829;51.968;5.684;2023-04-25T15:42:45;13.1;40.4
78536;SHT31;67829;51.968;5.684;2023-04-25T15:45:18;13.0;41.0
78536;SHT31;67829;51.968;5.684;2023-04-25T15:47:51;13.0;41.1
78536;SHT31;67829;51.968;5.684;2023-04-25T15:50:21;13.0;40.2
78536;SHT31;67829;51.968;5.684;2023-04-25T15:52:50;12.9;40.2
78536;SHT31;67829;51.968;5.684;2023-04-25T15:55:19;12.9;40.6
78536;SHT31;67829;51.968;5.684;2023-04-25T15:57:49;12.9;40.5
78536;SHT31;67829;51.968;5.684;2023-04-25T16:00:18;12.8;40.0
78536;SHT31;67829;51.968;5.684;2023-04-25T16:02:47;12.8;40.0
78536;SHT31;67829;51.968;5.684;2023-04-25T16:05:17;12.8;40.0
78536;SHT31;67829;51.968;5.684;2023-04-25T16:07:46;12.8;39.7
78536;SHT31;67829;51.968;5.684;2023-04-25T16:10:15;12.7;40.3
78536;SHT31;67829;51.968;5.684;2023-04-25T16:12:47;12.7;40.1
78536;SHT31;67829;51.968;5.684;2023-04-25T16:15:17;12.6;40.7
78536;SHT31;67829;51.968;5.684;2023-04-25T16:17:46;12.6;40.6
78536;SHT31;67829;51.968;5.684;2023-04-25T16:20:14;12.6;40.7
78536;SHT31;67829;51.968;5.684;2023-04-25T16:22:43;12.6;40.4
78536;SHT31;67829;51.968;5.684;2023-04-25T16:25:15;12.5;40.5